createdAt,value
2022-08-26T00:00:58.998Z,67.20
2022-08-26T00:02:00.554Z,67.50
2022-08-26T00:03:02.066Z,67.15
2022-08-26T00:04:04.358Z,67.08
2022-08-26T00:05:05.951Z,67.55
2022-08-26T00:06:07.392Z,67.51
2022-08-26T00:07:09.909Z,67.92
2022-08-26T00:08:13.163Z,67.70
2022-08-26T00:09:16.747Z,68.00
2022-08-26T00:10:18.399Z,67.38
2022-08-26T00:11:26.513Z,67.90
2022-08-26T00:12:36.160Z,68.09
2022-08-26T00:13:39.710Z,68.03
2022-08-26T00:14:49.497Z,68.15
2022-08-26T00:15:50.908Z,68.44
2022-08-26T00:16:52.352Z,68.27
2022-08-26T00:17:56.766Z,68.41
2022-08-26T00:18:58.257Z,68.53
2022-08-26T00:19:59.703Z,68.37
2022-08-26T00:21:01.192Z,68.45
2022-08-26T00:22:07.721Z,68.94
2022-08-26T00:23:09.540Z,69.16
2022-08-26T00:24:11.028Z,69.07
2022-08-26T00:25:12.890Z,69.16
2022-08-26T00:26:14.606Z,69.01
2022-08-26T00:27:16.016Z,69.11
2022-08-26T00:28:19.114Z,69.28
2022-08-26T00:29:22.945Z,68.65
2022-08-26T00:30:27.537Z,69.05
2022-08-26T00:31:31.196Z,68.81
2022-08-26T00:32:32.821Z,68.71
2022-08-26T00:33:35.961Z,68.58
2022-08-26T00:34:37.376Z,69.01
2022-08-26T00:35:39.021Z,69.13
2022-08-26T00:36:47.281Z,69.37
2022-08-26T00:37:50.776Z,69.46
2022-08-26T00:38:52.202Z,69.78
2022-08-26T00:39:53.692Z,70.14
2022-08-26T00:40:56.378Z,70.41
2022-08-26T00:41:57.842Z,70.41
2022-08-26T00:42:59.742Z,70.80
2022-08-26T00:44:01.152Z,70.54
2022-08-26T00:45:02.830Z,70.97
2022-08-26T00:46:14.675Z,70.51
2022-08-26T00:47:24.564Z,70.47
2022-08-26T00:48:30.775Z,69.24
2022-08-26T00:49:36.097Z,70.45
2022-08-26T00:50:39.460Z,70.44
2022-08-26T00:51:45.908Z,70.73
2022-08-26T00:52:48.262Z,70.98
2022-08-26T00:54:01.038Z,70.69
2022-08-26T00:55:09.159Z,71.10
2022-08-26T00:56:15.275Z,70.79
2022-08-26T00:57:18.434Z,71.18
2022-08-26T00:58:22.333Z,71.31
2022-08-26T00:59:24.335Z,71.53
2022-08-26T01:00:29.530Z,71.65
2022-08-26T01:01:30.972Z,71.76
2022-08-26T01:02:32.977Z,72.05
2022-08-26T01:03:35.108Z,71.96
2022-08-26T01:04:38.317Z,72.33
2022-08-26T01:05:40.889Z,72.15
2022-08-26T01:06:42.325Z,72.37
2022-08-26T01:07:46.065Z,72.11
2022-08-26T01:08:47.843Z,72.53
2022-08-26T01:09:49.290Z,72.54
2022-08-26T01:10:55.787Z,72.31
2022-08-26T01:11:58.963Z,72.70
2022-08-26T01:13:02.791Z,72.48
2022-08-26T01:14:06.476Z,72.56
2022-08-26T01:15:10.557Z,72.48
2022-08-26T01:16:14.315Z,72.72
2022-08-26T01:17:16.449Z,72.88
2022-08-26T01:18:18.223Z,72.58
2022-08-26T01:19:25.492Z,72.71
2022-08-26T01:20:36.229Z,73.78
2022-08-26T01:21:57.908Z,73.27
2022-08-26T01:23:01.630Z,73.47
2022-08-26T01:24:05.356Z,73.22
2022-08-26T01:25:06.867Z,72.83
2022-08-26T01:26:15.341Z,73.02
2022-08-26T01:27:21.883Z,73.19
2022-08-26T01:28:26.903Z,73.73
2022-08-26T01:29:29.805Z,73.54
2022-08-26T01:30:33.058Z,73.31
2022-08-26T01:31:39.057Z,73.62
2022-08-26T01:32:41.405Z,73.98
2022-08-26T01:33:55.035Z,73.23
2022-08-26T01:34:56.535Z,73.37
2022-08-26T01:35:58.167Z,73.41
2022-08-26T01:37:02.762Z,72.87
2022-08-26T01:38:04.666Z,73.25
2022-08-26T01:39:07.235Z,73.92
2022-08-26T01:40:12.273Z,74.32
2022-08-26T01:41:19.761Z,74.93
2022-08-26T01:42:22.280Z,74.91
2022-08-26T01:43:26.285Z,75.19
2022-08-26T01:44:30.636Z,75.33
2022-08-26T01:45:33.277Z,75.43
2022-08-26T01:46:35.018Z,75.49
2022-08-26T01:47:37.551Z,75.35
2022-08-26T01:48:39.413Z,75.29
2022-08-26T01:49:41.544Z,75.61
2022-08-26T01:50:43.927Z,75.57
2022-08-26T01:51:46.499Z,75.84
2022-08-26T01:52:51.671Z,75.88
2022-08-26T01:53:56.250Z,76.00
2022-08-26T01:55:01.653Z,75.77
2022-08-26T01:56:03.617Z,75.03
2022-08-26T01:57:05.570Z,75.09
2022-08-26T01:58:09.628Z,74.30
2022-08-26T01:59:14.034Z,75.03
2022-08-26T02:00:16.128Z,74.77
2022-08-26T02:01:18.227Z,75.06
2022-08-26T02:02:19.753Z,74.26
2022-08-26T02:03:21.327Z,74.77
2022-08-26T02:04:25.729Z,75.30
2022-08-26T02:05:27.341Z,74.90
2022-08-26T02:06:29.290Z,75.38
2022-08-26T02:07:33.234Z,75.22
2022-08-26T02:08:36.885Z,75.53
2022-08-26T02:09:41.196Z,75.46
2022-08-26T02:10:43.171Z,75.31
2022-08-26T02:11:44.638Z,75.24
2022-08-26T02:12:46.014Z,74.01
2022-08-26T02:14:08.484Z,74.59
2022-08-26T02:15:12.384Z,74.44
2022-08-26T02:16:16.174Z,74.61
2022-08-26T02:17:19.840Z,74.67
2022-08-26T02:18:23.137Z,74.66
2022-08-26T02:19:32.397Z,74.75
2022-08-26T02:20:33.818Z,74.77
2022-08-26T02:21:35.891Z,74.85
2022-08-26T02:22:38.203Z,74.64
2022-08-26T02:23:40.174Z,74.93
2022-08-26T02:24:49.391Z,74.80
2022-08-26T02:25:54.614Z,75.19
2022-08-26T02:26:56.830Z,75.50
2022-08-26T02:27:58.262Z,75.20
2022-08-26T02:29:05.210Z,75.48
2022-08-26T02:30:15.045Z,75.63
2022-08-26T02:31:18.703Z,75.22
2022-08-26T02:32:20.777Z,74.73
2022-08-26T02:33:22.373Z,75.13
2022-08-26T02:34:28.160Z,75.82
2022-08-26T02:35:33.574Z,75.76
2022-08-26T02:36:36.578Z,75.63
2022-08-26T02:37:37.952Z,75.17
2022-08-26T02:38:39.400Z,75.33
2022-08-26T02:39:42.025Z,75.82
2022-08-26T02:40:43.379Z,75.65
2022-08-26T02:41:45.451Z,76.03
2022-08-26T02:42:47.234Z,76.59
2022-08-26T02:43:48.629Z,76.70
2022-08-26T02:44:50.254Z,76.78
2022-08-26T02:45:51.645Z,76.65
2022-08-26T02:46:54.161Z,76.91
2022-08-26T02:47:56.018Z,76.78
2022-08-26T02:48:58.508Z,76.86
2022-08-26T02:49:59.938Z,76.91
2022-08-26T02:51:01.710Z,76.33
2022-08-26T02:52:03.433Z,76.61
2022-08-26T02:53:05.545Z,76.90
2022-08-26T02:54:07.585Z,77.43
2022-08-26T02:55:09.078Z,77.30
2022-08-26T02:56:10.777Z,77.38
2022-08-26T02:57:12.313Z,77.63
2022-08-26T02:58:13.839Z,78.00
2022-08-26T02:59:15.306Z,77.67
2022-08-26T03:00:16.979Z,77.57
2022-08-26T03:01:19.594Z,77.49
2022-08-26T03:02:21.057Z,77.29
2022-08-26T03:03:23.697Z,77.13
2022-08-26T03:04:25.969Z,76.99
2022-08-26T03:05:27.478Z,76.88
2022-08-26T03:06:29.483Z,76.67
2022-08-26T03:07:30.865Z,77.15
2022-08-26T03:08:32.313Z,77.55
2022-08-26T03:09:35.023Z,77.86
2022-08-26T03:10:36.585Z,78.64
2022-08-26T03:11:38.177Z,78.85
2022-08-26T03:12:39.671Z,79.13
2022-08-26T03:13:41.223Z,79.15
2022-08-26T03:14:43.169Z,79.15
2022-08-26T03:15:44.627Z,79.30
2022-08-26T03:16:49.197Z,79.08
2022-08-26T03:17:50.676Z,79.35
2022-08-26T03:18:52.623Z,79.09
2022-08-26T03:19:57.320Z,79.30
2022-08-26T03:20:59.365Z,79.26
2022-08-26T03:22:01.644Z,79.00
2022-08-26T03:23:03.094Z,78.63
2022-08-26T03:24:06.005Z,79.29
2022-08-26T03:25:08.788Z,79.23
2022-08-26T03:26:11.676Z,79.01
2022-08-26T03:27:13.658Z,78.99
2022-08-26T03:28:15.878Z,79.45
2022-08-26T03:29:20.168Z,79.37
2022-08-26T03:30:21.546Z,79.36
2022-08-26T03:31:24.608Z,79.64
2022-08-26T03:32:27.211Z,79.75
2022-08-26T03:33:28.757Z,80.09
2022-08-26T03:34:30.689Z,79.74
2022-08-26T03:35:32.890Z,80.12
2022-08-26T03:36:35.171Z,80.34
2022-08-26T03:37:36.830Z,80.32
2022-08-26T03:38:40.047Z,80.21
2022-08-26T03:39:41.504Z,80.06
2022-08-26T03:40:43.343Z,80.11
2022-08-26T03:41:45.543Z,80.08
2022-08-26T03:42:47.187Z,80.26
2022-08-26T03:43:49.098Z,79.86
2022-08-26T03:44:50.541Z,80.56
2022-08-26T03:45:52.397Z,80.02
2022-08-26T03:46:54.116Z,80.12
2022-08-26T03:47:55.916Z,80.03
2022-08-26T03:49:00.566Z,79.88
2022-08-26T03:50:02.502Z,80.50
2022-08-26T03:51:04.853Z,81.24
2022-08-26T03:52:06.461Z,81.29
2022-08-26T03:53:12.877Z,81.15
2022-08-26T03:54:14.818Z,81.34
2022-08-26T03:55:16.545Z,81.22
2022-08-26T03:56:19.209Z,81.73
2022-08-26T03:57:20.575Z,81.57
2022-08-26T03:58:23.625Z,81.83
2022-08-26T03:59:25.148Z,81.88
2022-08-26T04:00:26.628Z,81.88
2022-08-26T04:01:28.866Z,81.62
2022-08-26T04:02:30.609Z,81.93
2022-08-26T04:03:32.371Z,82.05
2022-08-26T04:04:34.951Z,81.46
2022-08-26T04:05:36.392Z,81.21
2022-08-26T04:06:41.895Z,81.06
2022-08-26T04:07:44.675Z,80.94
2022-08-26T04:08:46.051Z,81.23
2022-08-26T04:09:47.469Z,81.14
2022-08-26T04:10:48.827Z,81.41
2022-08-26T04:11:52.561Z,81.16
2022-08-26T04:12:54.117Z,82.01
2022-08-26T04:13:55.578Z,82.35
2022-08-26T04:14:58.163Z,82.88
2022-08-26T04:15:59.655Z,82.93
2022-08-26T04:17:01.135Z,82.34
2022-08-26T04:18:02.583Z,82.60
2022-08-26T04:19:04.368Z,82.39
2022-08-26T04:20:07.095Z,82.15
2022-08-26T04:21:09.059Z,82.21
2022-08-26T04:22:12.621Z,82.26
2022-08-26T04:23:14.594Z,82.38
2022-08-26T04:24:20.374Z,82.24
2022-08-26T04:25:21.985Z,82.31
2022-08-26T04:26:24.021Z,82.32
2022-08-26T04:27:25.641Z,82.21
2022-08-26T04:28:27.865Z,82.22
2022-08-26T04:29:29.319Z,82.23
2022-08-26T04:30:30.730Z,82.08
2022-08-26T04:31:33.836Z,81.97
2022-08-26T04:32:35.314Z,81.92
2022-08-26T04:33:41.627Z,81.83
2022-08-26T04:34:43.682Z,81.79
2022-08-26T04:35:46.426Z,82.10
2022-08-26T04:36:49.774Z,82.03
2022-08-26T04:37:51.186Z,82.06
2022-08-26T04:38:52.698Z,82.04
2022-08-26T04:39:55.260Z,81.93
2022-08-26T04:40:57.268Z,81.81
2022-08-26T04:41:58.904Z,81.71
2022-08-26T04:43:03.455Z,81.45
2022-08-26T04:44:05.080Z,81.47
2022-08-26T04:45:09.967Z,81.26
2022-08-26T04:46:13.586Z,81.00
2022-08-26T04:47:15.163Z,81.01
2022-08-26T04:48:16.900Z,80.69
2022-08-26T04:49:18.561Z,80.66
2022-08-26T04:50:20.149Z,80.51
2022-08-26T04:51:25.080Z,80.43
2022-08-26T04:52:26.469Z,80.42
2022-08-26T04:53:29.637Z,80.31
2022-08-26T04:54:31.050Z,80.23
2022-08-26T04:55:38.642Z,80.12
2022-08-26T04:56:45.290Z,79.96
2022-08-26T04:57:47.113Z,79.88
2022-08-26T04:58:48.500Z,79.75
2022-08-26T04:59:49.999Z,79.67
2022-08-26T05:00:52.346Z,79.34
2022-08-26T05:01:55.279Z,79.61
2022-08-26T05:02:56.898Z,79.50
2022-08-26T05:03:58.905Z,79.32
2022-08-26T05:05:00.573Z,78.96
2022-08-26T05:06:03.646Z,78.73
2022-08-26T05:07:05.073Z,78.43
2022-08-26T05:08:08.780Z,78.07
2022-08-26T05:09:10.509Z,77.97
2022-08-26T05:10:12.142Z,77.69
2022-08-26T05:11:16.267Z,77.33
2022-08-26T05:12:17.804Z,77.32
2022-08-26T05:13:21.047Z,77.31
2022-08-26T05:14:22.809Z,76.88
2022-08-26T05:15:24.211Z,76.67
2022-08-26T05:16:25.776Z,76.42
2022-08-26T05:17:27.291Z,76.20
2022-08-26T05:18:28.735Z,75.93
2022-08-26T05:19:30.217Z,75.75
2022-08-26T05:20:31.664Z,75.36
2022-08-26T05:21:34.045Z,75.03
2022-08-26T05:22:35.890Z,74.97
2022-08-26T05:23:37.293Z,74.58
2022-08-26T05:24:38.868Z,74.22
2022-08-26T05:25:42.370Z,73.73
2022-08-26T05:26:44.620Z,73.50
2022-08-26T05:27:46.235Z,73.38
2022-08-26T05:28:47.664Z,73.15
2022-08-26T05:29:54.374Z,73.06
2022-08-26T05:30:56.709Z,72.59
2022-08-26T05:31:58.202Z,71.71
2022-08-26T05:32:59.586Z,71.70
2022-08-26T05:34:03.624Z,70.76
2022-08-26T05:35:05.486Z,70.06
2022-08-26T05:36:11.750Z,69.86
2022-08-26T05:37:14.754Z,69.69
2022-08-26T05:38:19.850Z,68.97
2022-08-26T05:39:21.282Z,68.92
2022-08-26T05:40:22.869Z,68.64
2022-08-26T05:41:34.190Z,68.61
2022-08-26T05:42:37.828Z,68.73
2022-08-26T05:43:39.295Z,69.21
2022-08-26T05:44:55.472Z,69.47
2022-08-26T05:46:05.984Z,69.48
2022-08-26T05:47:07.521Z,69.74
2022-08-26T05:48:10.171Z,69.28
2022-08-26T05:49:13.034Z,69.23
2022-08-26T05:50:14.674Z,69.34
2022-08-26T05:51:16.350Z,69.40
2022-08-26T05:52:18.048Z,69.34
2022-08-26T05:53:21.201Z,69.64
2022-08-26T05:54:22.627Z,69.35
2022-08-26T05:55:24.043Z,69.55
2022-08-26T05:56:25.714Z,69.52
2022-08-26T05:57:28.290Z,69.30
2022-08-26T05:58:29.814Z,68.77
2022-08-26T05:59:31.214Z,68.80
2022-08-26T06:00:33.950Z,68.92
2022-08-26T06:01:35.379Z,68.67
2022-08-26T06:02:37.581Z,68.65
2022-08-26T06:03:39.925Z,68.44
2022-08-26T06:04:41.964Z,68.28
2022-08-26T06:05:44.124Z,68.19
2022-08-26T06:06:46.157Z,68.41
2022-08-26T06:07:47.522Z,68.42
2022-08-26T06:08:49.312Z,68.08
2022-08-26T06:09:50.753Z,68.04
2022-08-26T06:10:53.429Z,68.04
2022-08-26T06:11:55.054Z,68.13
2022-08-26T06:12:56.540Z,67.85
2022-08-26T06:14:03.584Z,68.05
2022-08-26T06:15:05.916Z,68.24
2022-08-26T06:16:08.785Z,68.32
2022-08-26T06:17:10.282Z,67.82
2022-08-26T06:18:12.529Z,67.96
2022-08-26T06:19:14.391Z,67.74
2022-08-26T06:20:15.813Z,67.51
2022-08-26T06:21:25.007Z,67.46
2022-08-26T06:22:26.459Z,67.28
2022-08-26T06:23:29.394Z,66.64
2022-08-26T06:24:30.797Z,66.78
2022-08-26T06:25:32.169Z,66.80
2022-08-26T06:26:34.559Z,66.82
2022-08-26T06:27:38.121Z,66.39
2022-08-26T06:28:40.079Z,66.88
2022-08-26T06:29:45.045Z,66.80
2022-08-26T06:30:46.501Z,66.86
2022-08-26T06:31:48.218Z,66.54
2022-08-26T06:32:49.654Z,65.93
2022-08-26T06:33:51.574Z,65.55
2022-08-26T06:34:52.985Z,65.23
2022-08-26T06:35:54.712Z,64.56
2022-08-26T06:36:56.816Z,64.58
2022-08-26T06:37:58.316Z,63.56
2022-08-26T06:39:00.756Z,63.09
2022-08-26T06:40:02.321Z,61.90
2022-08-26T06:41:07.791Z,61.29
2022-08-26T06:42:09.209Z,60.26
2022-08-26T06:43:12.649Z,59.04
2022-08-26T06:44:14.845Z,56.92
2022-08-26T06:45:16.218Z,55.54
2022-08-26T06:46:20.091Z,55.05
2022-08-26T06:47:21.510Z,54.12
2022-08-26T06:48:23.894Z,52.16
2022-08-26T06:49:25.706Z,51.21
2022-08-26T06:50:28.701Z,50.92
2022-08-26T06:51:31.442Z,49.79
2022-08-26T06:52:36.218Z,49.75
2022-08-26T06:53:37.835Z,50.86
2022-08-26T06:54:42.497Z,51.43
2022-08-26T06:55:45.214Z,51.64
2022-08-26T06:56:46.637Z,52.42
2022-08-26T06:57:49.373Z,52.39
2022-08-26T06:58:51.291Z,52.86
2022-08-26T06:59:52.717Z,53.63
2022-08-26T07:00:54.074Z,53.49
2022-08-26T07:01:55.565Z,53.68
2022-08-26T07:02:57.052Z,54.23
2022-08-26T07:03:59.829Z,54.67
2022-08-26T07:05:01.724Z,54.96
2022-08-26T07:06:03.646Z,55.44
2022-08-26T07:07:05.023Z,55.81
2022-08-26T07:08:06.672Z,55.12
2022-08-26T07:09:10.021Z,55.58
2022-08-26T07:10:11.631Z,56.06
2022-08-26T07:11:13.312Z,56.54
2022-08-26T07:12:14.801Z,56.39
2022-08-26T07:13:16.281Z,56.21
2022-08-26T07:14:33.508Z,56.45
2022-08-26T07:15:38.980Z,56.41
2022-08-26T07:16:41.281Z,56.50
2022-08-26T07:17:42.839Z,56.34
2022-08-26T07:18:45.940Z,56.30
2022-08-26T07:19:47.940Z,56.28
2022-08-26T07:20:50.653Z,55.99
2022-08-26T07:21:52.102Z,56.17
2022-08-26T07:22:56.992Z,55.89
2022-08-26T07:24:01.590Z,55.73
2022-08-26T07:25:04.180Z,55.73
2022-08-26T07:26:08.695Z,55.97
2022-08-26T07:27:12.200Z,56.15
2022-08-26T07:28:13.589Z,56.30
2022-08-26T07:29:15.082Z,56.26
2022-08-26T07:30:16.593Z,56.79
2022-08-26T07:31:19.352Z,56.73
2022-08-26T07:32:20.820Z,56.67
2022-08-26T07:33:24.369Z,57.03
2022-08-26T07:34:26.219Z,57.08
2022-08-26T07:35:27.695Z,57.39
2022-08-26T07:36:29.168Z,57.49
2022-08-26T07:37:30.613Z,57.11
2022-08-26T07:38:41.800Z,57.17
2022-08-26T07:39:43.600Z,56.89
2022-08-26T07:40:45.111Z,56.71
2022-08-26T07:41:46.812Z,56.45
2022-08-26T07:42:48.208Z,56.19
2022-08-26T07:43:50.589Z,56.10
2022-08-26T07:44:52.138Z,55.87
2022-08-26T07:45:53.549Z,56.35
2022-08-26T07:46:54.997Z,56.24
2022-08-26T07:47:56.409Z,56.72
2022-08-26T07:48:58.077Z,56.64
2022-08-26T07:49:59.465Z,56.55
2022-08-26T07:51:00.996Z,56.25
2022-08-26T07:52:02.553Z,55.99
2022-08-26T07:53:04.187Z,55.92
2022-08-26T07:54:05.936Z,56.01
2022-08-26T07:55:08.256Z,55.86
2022-08-26T07:56:09.736Z,55.90
2022-08-26T07:57:12.873Z,55.79
2022-08-26T07:58:14.255Z,55.83
2022-08-26T07:59:16.781Z,55.92
2022-08-26T08:00:18.165Z,56.09
2022-08-26T08:01:20.567Z,55.88
2022-08-26T08:02:22.968Z,56.04
2022-08-26T08:03:24.348Z,56.02
2022-08-26T08:04:26.664Z,56.05
2022-08-26T08:05:33.408Z,55.81
2022-08-26T08:06:35.324Z,56.01
2022-08-26T08:07:44.676Z,56.35
2022-08-26T08:08:47.049Z,56.17
2022-08-26T08:09:48.804Z,56.21
2022-08-26T08:10:50.174Z,56.12
2022-08-26T08:11:52.190Z,56.17
2022-08-26T08:12:53.564Z,56.40
2022-08-26T08:13:56.397Z,56.49
2022-08-26T08:14:58.359Z,55.90
2022-08-26T08:16:01.022Z,55.43
2022-08-26T08:17:02.864Z,55.36
2022-08-26T08:18:04.968Z,55.71
2022-08-26T08:19:06.692Z,55.56
2022-08-26T08:20:08.304Z,55.64
2022-08-26T08:21:25.073Z,55.74
2022-08-26T08:22:26.574Z,55.63
2022-08-26T08:23:29.375Z,55.79
2022-08-26T08:24:31.637Z,55.76
2022-08-26T08:25:34.147Z,56.63
2022-08-26T08:26:35.551Z,56.07
2022-08-26T08:27:38.268Z,56.43
2022-08-26T08:28:39.768Z,56.25
2022-08-26T08:29:42.984Z,56.37
2022-08-26T08:30:44.440Z,56.08
2022-08-26T08:31:56.940Z,55.94
2022-08-26T08:32:59.663Z,56.04
2022-08-26T08:34:01.144Z,56.19
2022-08-26T08:35:02.581Z,56.26
2022-08-26T08:36:12.461Z,56.11
2022-08-26T08:37:20.189Z,56.50
2022-08-26T08:38:22.811Z,56.12
2022-08-26T08:39:26.205Z,55.30
2022-08-26T08:40:27.769Z,55.55
2022-08-26T08:41:50.933Z,55.38
2022-08-26T08:42:56.176Z,55.35
2022-08-26T08:44:00.141Z,55.96
2022-08-26T08:45:12.204Z,56.00
2022-08-26T08:46:15.122Z,56.33
2022-08-26T08:47:25.732Z,56.53
2022-08-26T08:48:50.189Z,56.38
2022-08-26T08:49:53.980Z,56.33
2022-08-26T08:51:02.160Z,56.03
2022-08-26T08:52:10.571Z,55.52
2022-08-26T08:53:18.702Z,55.20
2022-08-26T08:54:21.898Z,55.58
2022-08-26T08:55:25.555Z,55.95
2022-08-26T08:56:26.933Z,55.21
2022-08-26T08:57:37.157Z,55.45
2022-08-26T08:58:44.329Z,55.22
2022-08-26T08:59:55.811Z,55.47
2022-08-26T09:01:00.293Z,55.82
2022-08-26T09:02:03.943Z,55.95
2022-08-26T09:03:23.999Z,55.52
2022-08-26T09:04:40.797Z,55.06
2022-08-26T09:05:48.577Z,54.68
2022-08-26T09:06:53.712Z,55.05
2022-08-26T09:08:00.981Z,55.60
2022-08-26T09:09:02.792Z,55.67
2022-08-26T09:10:23.842Z,55.94
2022-08-26T09:11:25.765Z,55.58
2022-08-26T09:12:31.505Z,55.15
2022-08-26T09:13:33.580Z,54.49
2022-08-26T09:14:35.358Z,54.38
2022-08-26T09:15:55.541Z,54.40
2022-08-26T09:17:15.884Z,54.75
2022-08-26T09:18:25.028Z,54.22
2022-08-26T09:19:35.774Z,54.02
2022-08-26T09:20:46.508Z,54.03
2022-08-26T09:21:54.842Z,54.09
2022-08-26T09:22:58.238Z,53.99
2022-08-26T09:24:00.178Z,53.73
2022-08-26T09:25:01.893Z,53.59
2022-08-26T09:26:25.958Z,53.30
2022-08-26T09:27:39.667Z,52.22
2022-08-26T09:28:42.426Z,51.81
2022-08-26T09:29:43.939Z,51.79
2022-08-26T09:30:47.020Z,51.38
2022-08-26T09:31:48.472Z,51.47
2022-08-26T09:33:01.218Z,51.63
2022-08-26T09:34:17.360Z,51.29
2022-08-26T09:35:27.365Z,51.20
2022-08-26T09:36:39.193Z,50.76
2022-08-26T09:38:53.440Z,51.38
2022-08-26T09:39:56.339Z,51.06
2022-08-26T09:40:59.616Z,49.75
2022-08-26T09:42:03.967Z,48.96
2022-08-26T09:43:09.824Z,48.75
2022-08-26T09:44:15.606Z,49.60
2022-08-26T09:45:26.837Z,49.30
2022-08-26T09:46:28.529Z,49.50
2022-08-26T09:47:41.363Z,49.99
2022-08-26T09:48:42.781Z,49.50
2022-08-26T09:49:44.127Z,49.27
2022-08-26T09:51:14.731Z,48.74
2022-08-26T09:52:23.531Z,48.54
2022-08-26T09:53:46.030Z,48.26
2022-08-26T09:54:57.909Z,48.21
2022-08-26T09:56:14.943Z,47.55
2022-08-26T09:57:20.692Z,47.41
2022-08-26T09:58:33.272Z,47.49
2022-08-26T09:59:34.626Z,47.55
2022-08-26T10:00:41.272Z,47.59
2022-08-26T10:01:44.979Z,46.42
2022-08-26T10:02:49.547Z,46.71
2022-08-26T10:03:51.748Z,47.08
2022-08-26T10:04:55.254Z,47.11
2022-08-26T10:06:06.650Z,47.13
2022-08-26T10:07:09.386Z,46.46
2022-08-26T10:08:21.460Z,46.81
2022-08-26T10:09:25.514Z,46.42
2022-08-26T10:10:31.872Z,46.60
2022-08-26T10:11:42.042Z,46.67
2022-08-26T10:12:49.210Z,46.89
2022-08-26T10:14:00.488Z,47.53
2022-08-26T10:15:07.971Z,47.17
2022-08-26T10:16:21.924Z,46.02
2022-08-26T10:17:26.079Z,46.01
2022-08-26T10:18:34.076Z,46.39
2022-08-26T10:19:55.979Z,46.13
2022-08-26T10:21:09.602Z,45.82
2022-08-26T10:22:30.066Z,46.35
2022-08-26T10:23:34.362Z,45.36
2022-08-26T10:24:44.387Z,45.43
2022-08-26T10:25:56.953Z,45.48
2022-08-26T10:27:03.755Z,45.43
2022-08-26T10:28:20.630Z,45.23
2022-08-26T10:29:43.977Z,45.63
2022-08-26T10:30:46.749Z,46.11
2022-08-26T10:32:02.651Z,46.01
2022-08-26T10:33:07.183Z,45.67
2022-08-26T10:34:10.332Z,45.42
2022-08-26T10:35:15.659Z,45.03
2022-08-26T10:36:20.230Z,44.74
2022-08-26T10:37:26.670Z,43.76
2022-08-26T10:38:39.227Z,43.77
2022-08-26T10:39:55.240Z,44.50
2022-08-26T10:41:09.901Z,44.80
2022-08-26T10:42:22.842Z,44.83
2022-08-26T10:43:33.245Z,44.19
2022-08-26T10:44:37.942Z,44.08
2022-08-26T10:45:44.060Z,43.83
2022-08-26T10:46:48.106Z,43.85
2022-08-26T10:47:55.530Z,44.12
2022-08-26T10:49:08.585Z,44.13
2022-08-26T10:50:10.260Z,42.89
2022-08-26T10:51:15.826Z,42.78
2022-08-26T10:52:29.430Z,42.59
2022-08-26T10:53:32.749Z,41.81
2022-08-26T10:54:40.173Z,42.60
2022-08-26T10:55:48.038Z,42.71
2022-08-26T10:56:54.081Z,43.07
2022-08-26T10:57:55.751Z,42.97
2022-08-26T10:59:06.408Z,42.72
2022-08-26T11:00:18.124Z,42.41
2022-08-26T11:01:40.706Z,42.79
2022-08-26T11:02:47.477Z,42.82
2022-08-26T11:03:59.538Z,41.16
2022-08-26T11:05:02.754Z,41.17
2022-08-26T11:06:19.342Z,41.02
2022-08-26T11:07:39.321Z,41.42
2022-08-26T11:08:51.335Z,41.01
2022-08-26T11:09:53.493Z,40.53
2022-08-26T11:10:59.273Z,40.13
2022-08-26T11:12:05.108Z,39.66
2022-08-26T11:13:11.555Z,39.53
2022-08-26T11:14:18.914Z,39.57
2022-08-26T11:15:30.874Z,39.78
2022-08-26T11:16:46.043Z,40.22
2022-08-26T11:17:47.548Z,39.21
2022-08-26T11:18:51.355Z,39.07
2022-08-26T11:20:00.797Z,38.95
2022-08-26T11:21:24.597Z,38.28
2022-08-26T11:22:31.051Z,38.67
2022-08-26T11:23:32.418Z,38.53
2022-08-26T11:24:46.697Z,38.60
2022-08-26T11:26:06.702Z,38.22
2022-08-26T11:27:11.397Z,38.03
2022-08-26T11:28:31.424Z,38.61
2022-08-26T11:29:52.096Z,38.79
2022-08-26T11:30:58.116Z,38.45
2022-08-26T11:31:59.888Z,38.85
2022-08-26T11:33:01.485Z,39.64
2022-08-26T11:34:04.734Z,40.06
2022-08-26T11:35:10.650Z,40.32
2022-08-26T11:36:29.112Z,40.19
2022-08-26T11:37:40.604Z,40.53
2022-08-26T11:38:42.834Z,40.35
2022-08-26T11:39:56.928Z,40.36
2022-08-26T11:41:06.579Z,39.75
2022-08-26T11:42:31.428Z,39.32
2022-08-26T11:43:33.026Z,39.51
2022-08-26T11:44:39.493Z,39.61
2022-08-26T11:45:43.440Z,39.71
2022-08-26T11:46:52.134Z,39.01
2022-08-26T11:47:54.097Z,39.16
2022-08-26T11:49:02.670Z,38.96
2022-08-26T11:50:17.774Z,39.41
2022-08-26T11:51:19.385Z,39.86
2022-08-26T11:52:21.965Z,39.70
2022-08-26T11:53:24.018Z,38.90
2022-08-26T11:54:35.097Z,39.37
2022-08-26T11:55:41.708Z,39.59
2022-08-26T11:56:45.489Z,39.37
2022-08-26T11:57:49.233Z,39.88
2022-08-26T11:58:54.101Z,39.60
2022-08-26T11:59:56.189Z,39.71
2022-08-26T12:01:03.601Z,38.84
2022-08-26T12:02:11.577Z,38.58
2022-08-26T12:03:17.800Z,37.29
2022-08-26T12:04:25.149Z,37.48
2022-08-26T12:05:30.954Z,38.76
2022-08-26T12:06:42.047Z,38.88
2022-08-26T12:07:49.145Z,39.60
2022-08-26T12:08:51.907Z,39.77
2022-08-26T12:10:02.261Z,39.48
2022-08-26T12:11:05.245Z,38.67
2022-08-26T12:12:14.841Z,38.80
2022-08-26T12:13:24.053Z,38.85
2022-08-26T12:14:27.935Z,39.70
2022-08-26T12:15:31.312Z,40.13
2022-08-26T12:16:34.404Z,40.04
2022-08-26T12:17:35.998Z,40.51
2022-08-26T12:18:39.403Z,40.85
2022-08-26T12:19:40.857Z,40.87
2022-08-26T12:20:42.387Z,41.44
2022-08-26T12:21:47.410Z,41.05
2022-08-26T12:22:50.011Z,41.45
2022-08-26T12:23:54.437Z,41.77
2022-08-26T12:25:00.426Z,41.67
2022-08-26T12:26:04.209Z,41.38
2022-08-26T12:27:08.774Z,41.69
2022-08-26T12:28:10.349Z,41.36
2022-08-26T12:29:27.484Z,41.06
2022-08-26T12:30:28.958Z,40.82
2022-08-26T12:31:32.593Z,40.43
2022-08-26T12:32:34.795Z,39.62
2022-08-26T12:33:37.722Z,39.99
2022-08-26T12:34:40.902Z,40.30
2022-08-26T12:35:42.516Z,39.38
2022-08-26T12:36:44.156Z,39.62
2022-08-26T12:37:48.827Z,39.98
2022-08-26T12:38:53.745Z,38.87
2022-08-26T12:40:17.882Z,38.75
2022-08-26T12:41:41.014Z,38.81
2022-08-26T12:42:42.491Z,38.74
2022-08-26T12:43:45.005Z,38.52
2022-08-26T12:44:54.144Z,39.01
2022-08-26T12:45:57.878Z,39.04
2022-08-26T12:47:03.684Z,39.06
2022-08-26T12:48:10.456Z,38.99
2022-08-26T12:49:17.122Z,38.21
2022-08-26T12:50:23.543Z,38.27
2022-08-26T12:51:26.465Z,37.93
2022-08-26T12:52:29.286Z,38.28
2022-08-26T12:53:31.946Z,37.92
2022-08-26T12:54:33.867Z,37.63
2022-08-26T12:55:42.786Z,37.81
2022-08-26T12:56:44.198Z,36.78
2022-08-26T12:57:45.670Z,36.03
2022-08-26T12:59:00.330Z,35.15
2022-08-26T13:00:20.459Z,35.60
2022-08-26T13:01:27.888Z,35.42
2022-08-26T13:02:36.594Z,36.10
2022-08-26T13:03:44.333Z,36.26
2022-08-26T13:04:45.797Z,37.05
2022-08-26T13:05:47.226Z,37.61
2022-08-26T13:06:48.589Z,37.71
2022-08-26T13:08:09.266Z,38.03
2022-08-26T13:09:10.660Z,38.31
2022-08-26T13:10:31.999Z,37.92
2022-08-26T13:11:35.031Z,38.08
2022-08-26T13:12:36.419Z,38.18
2022-08-26T13:13:38.571Z,37.54
2022-08-26T13:14:40.119Z,37.44
2022-08-26T13:15:41.513Z,38.15
2022-08-26T13:16:43.243Z,38.28
2022-08-26T13:17:44.665Z,38.76
2022-08-26T13:18:50.154Z,38.89
2022-08-26T13:19:51.542Z,38.86
2022-08-26T13:20:52.942Z,38.85
2022-08-26T13:21:56.245Z,39.13
2022-08-26T13:22:58.703Z,39.46
2022-08-26T13:24:02.658Z,38.76
2022-08-26T13:25:04.217Z,39.54
2022-08-26T13:26:05.650Z,38.79
2022-08-26T13:27:09.125Z,38.86
2022-08-26T13:28:10.590Z,38.82
2022-08-26T13:29:12.513Z,39.30
2022-08-26T13:30:13.921Z,39.33
2022-08-26T13:31:15.972Z,40.06
2022-08-26T13:32:19.373Z,40.28
2022-08-26T13:33:21.810Z,40.29
2022-08-26T13:34:23.528Z,40.62
2022-08-26T13:35:25.106Z,40.55
2022-08-26T13:36:26.513Z,40.77
2022-08-26T13:37:34.230Z,40.74
2022-08-26T13:38:36.801Z,40.40
2022-08-26T13:39:38.231Z,40.75
2022-08-26T13:40:39.647Z,40.64
2022-08-26T13:41:41.233Z,40.81
2022-08-26T13:42:49.504Z,40.82
2022-08-26T13:43:51.183Z,41.28
2022-08-26T13:44:52.528Z,41.08
2022-08-26T13:45:54.295Z,41.20
2022-08-26T13:46:55.686Z,41.68
2022-08-26T13:47:57.065Z,41.70
2022-08-26T13:48:58.484Z,41.42
2022-08-26T13:49:59.906Z,40.97
2022-08-26T13:51:01.970Z,40.98
2022-08-26T13:52:04.099Z,40.79